createdAt,value
2022-10-20T00:02:11.820Z,7.36
2022-10-20T00:04:38.477Z,7.35
2022-10-20T00:07:05.046Z,7.31
2022-10-20T00:09:31.661Z,7.32
2022-10-20T00:11:58.308Z,7.30
2022-10-20T00:14:24.938Z,7.23
2022-10-20T00:16:51.550Z,7.28
2022-10-20T00:19:18.168Z,7.20
2022-10-20T00:21:44.731Z,7.19
2022-10-20T00:24:11.343Z,7.22
2022-10-20T00:26:37.957Z,7.03
2022-10-20T00:29:04.925Z,6.89
2022-10-20T00:31:31.858Z,6.89
2022-10-20T00:33:58.428Z,6.85
2022-10-20T00:36:25.072Z,6.87
2022-10-20T00:38:57.370Z,6.89
2022-10-20T00:41:23.947Z,6.89
2022-10-20T00:44:31.997Z,6.94
2022-10-20T00:46:59.182Z,6.94
2022-10-20T00:49:26.762Z,6.80
2022-10-20T00:51:54.171Z,6.75
2022-10-20T00:54:25.378Z,6.72
2022-10-20T00:56:54.639Z,6.79
2022-10-20T00:59:25.837Z,6.81
2022-10-20T01:01:52.548Z,6.90
2022-10-20T01:04:19.856Z,6.81
2022-10-20T01:06:46.416Z,6.78
2022-10-20T01:09:13.254Z,6.92
2022-10-20T01:11:56.538Z,6.81
2022-10-20T01:14:35.183Z,6.65
2022-10-20T01:17:31.047Z,6.79
2022-10-20T01:20:12.554Z,6.71
2022-10-20T01:23:08.490Z,6.62
2022-10-20T01:25:53.763Z,6.77
2022-10-20T01:28:44.782Z,6.72
2022-10-20T01:31:37.437Z,6.64
2022-10-20T01:34:29.646Z,6.70
2022-10-20T01:37:28.135Z,6.67
2022-10-20T01:40:07.703Z,6.71
2022-10-20T01:42:38.071Z,6.82
2022-10-20T01:45:05.128Z,6.59
2022-10-20T01:47:34.436Z,6.52
2022-10-20T01:50:04.310Z,6.48
2022-10-20T01:52:31.901Z,6.51
2022-10-20T01:54:58.517Z,6.50
2022-10-20T01:57:49.869Z,6.52
2022-10-20T02:00:17.596Z,6.28
2022-10-20T02:03:13.903Z,6.17
2022-10-20T02:05:59.361Z,6.25
2022-10-20T02:08:44.277Z,6.29
2022-10-20T02:11:39.737Z,6.35
2022-10-20T02:14:08.027Z,6.39
2022-10-20T02:16:40.441Z,6.52
2022-10-20T02:19:09.613Z,6.47
2022-10-20T02:21:36.838Z,6.55
2022-10-20T02:24:09.228Z,6.47
2022-10-20T02:26:38.846Z,6.36
2022-10-20T02:29:13.374Z,6.29
2022-10-20T02:31:40.468Z,6.30
2022-10-20T02:34:07.660Z,6.24
2022-10-20T02:36:42.139Z,6.08
2022-10-20T02:39:09.974Z,5.93
2022-10-20T02:41:36.786Z,5.83
2022-10-20T02:44:03.588Z,5.74
2022-10-20T02:46:30.183Z,5.81
2022-10-20T02:48:56.792Z,6.00
2022-10-20T02:51:23.394Z,5.71
2022-10-20T02:53:49.968Z,5.68
2022-10-20T02:56:16.654Z,5.65
2022-10-20T02:58:43.225Z,5.67
2022-10-20T03:01:09.810Z,5.64
2022-10-20T03:03:36.382Z,6.00
2022-10-20T03:06:11.030Z,5.92
2022-10-20T03:08:37.862Z,5.91
2022-10-20T03:11:04.926Z,6.33
2022-10-20T03:13:31.719Z,6.31
2022-10-20T03:15:58.317Z,6.20
2022-10-20T03:18:24.977Z,6.16
2022-10-20T03:20:52.499Z,6.19
2022-10-20T03:23:20.312Z,6.21
2022-10-20T03:25:47.895Z,6.08
2022-10-20T03:28:14.507Z,6.27
2022-10-20T03:30:41.087Z,6.05
2022-10-20T03:33:07.713Z,5.71
2022-10-20T03:35:34.291Z,5.75
2022-10-20T03:38:01.124Z,5.75
2022-10-20T03:40:27.706Z,5.68
2022-10-20T03:42:54.301Z,5.78
2022-10-20T03:45:20.945Z,5.89
2022-10-20T03:47:47.660Z,5.81
2022-10-20T03:50:14.297Z,5.83
2022-10-20T03:52:42.172Z,5.73
2022-10-20T03:55:08.946Z,5.60
2022-10-20T03:57:35.699Z,5.43
2022-10-20T04:00:02.431Z,5.52
2022-10-20T04:02:35.926Z,5.54
2022-10-20T04:05:03.540Z,5.64
2022-10-20T04:07:30.271Z,5.49
2022-10-20T04:09:57.944Z,5.54
2022-10-20T04:12:24.935Z,5.48
2022-10-20T04:14:51.687Z,5.44
2022-10-20T04:17:18.307Z,5.48
2022-10-20T04:19:45.073Z,5.55
2022-10-20T04:22:11.733Z,5.54
2022-10-20T04:24:38.339Z,5.42
2022-10-20T04:27:04.903Z,5.38
2022-10-20T04:29:31.832Z,5.30
2022-10-20T04:31:58.670Z,5.22
2022-10-20T04:34:25.287Z,5.13
2022-10-20T04:36:51.864Z,5.19
2022-10-20T04:39:18.506Z,5.22
2022-10-20T04:41:45.158Z,5.21
2022-10-20T04:44:11.789Z,5.13
2022-10-20T04:46:38.509Z,5.08
2022-10-20T04:49:05.260Z,5.13
2022-10-20T04:51:31.852Z,5.08
2022-10-20T04:53:58.563Z,5.02
2022-10-20T04:56:25.408Z,5.21
2022-10-20T04:58:54.263Z,5.18
2022-10-20T05:01:22.414Z,5.03
2022-10-20T05:03:49.184Z,5.01
2022-10-20T05:06:27.061Z,5.04
2022-10-20T05:08:56.948Z,5.14
2022-10-20T05:11:26.050Z,5.23
2022-10-20T05:13:52.727Z,5.08
2022-10-20T05:16:19.589Z,5.21
2022-10-20T05:18:46.931Z,5.24
2022-10-20T05:21:17.026Z,5.27
2022-10-20T05:23:44.616Z,5.22
2022-10-20T05:26:18.961Z,5.07
2022-10-20T05:28:47.551Z,5.08
2022-10-20T05:31:16.118Z,4.80
2022-10-20T05:33:48.429Z,4.85
2022-10-20T05:36:19.453Z,4.88
2022-10-20T05:38:49.450Z,5.28
2022-10-20T05:41:19.257Z,5.23
2022-10-20T05:43:50.108Z,5.02
2022-10-20T05:46:17.570Z,5.05
2022-10-20T05:48:45.082Z,4.90
2022-10-20T05:51:15.362Z,5.02
2022-10-20T05:53:43.579Z,4.89
2022-10-20T05:56:12.643Z,4.73
2022-10-20T05:58:39.891Z,4.93
2022-10-20T06:01:12.165Z,4.63
2022-10-20T06:03:38.809Z,4.73
2022-10-20T06:06:05.480Z,4.72
2022-10-20T06:08:33.485Z,4.96
2022-10-20T06:11:08.787Z,4.72
2022-10-20T06:13:35.431Z,4.77
2022-10-20T06:16:13.766Z,4.82
2022-10-20T06:18:40.645Z,4.77
2022-10-20T06:21:11.409Z,4.80
2022-10-20T06:23:38.060Z,4.67
2022-10-20T06:26:14.108Z,4.67
2022-10-20T06:28:41.425Z,4.62
2022-10-20T06:31:17.671Z,4.60
2022-10-20T06:33:45.065Z,4.77
2022-10-20T06:36:12.714Z,4.69
2022-10-20T06:38:40.155Z,4.78
2022-10-20T06:41:12.568Z,5.01
2022-10-20T06:43:39.250Z,4.94
2022-10-20T06:46:08.369Z,4.80
2022-10-20T06:48:35.884Z,5.05
2022-10-20T06:51:05.832Z,5.14
2022-10-20T06:53:35.029Z,5.00
2022-10-20T06:56:04.774Z,5.21
2022-10-20T06:58:31.363Z,5.88
2022-10-20T07:01:09.983Z,6.34
2022-10-20T07:03:39.044Z,6.37
2022-10-20T07:06:07.206Z,6.12
2022-10-20T07:08:35.970Z,6.09
2022-10-20T07:11:03.538Z,6.53
2022-10-20T07:13:31.189Z,6.37
2022-10-20T07:15:59.185Z,6.74
2022-10-20T07:18:27.756Z,6.62
2022-10-20T07:20:59.189Z,6.51
2022-10-20T07:23:28.231Z,6.87
2022-10-20T07:26:09.319Z,7.44
2022-10-20T07:28:36.640Z,7.68
2022-10-20T07:31:08.556Z,7.55
2022-10-20T07:33:35.249Z,7.64
2022-10-20T07:36:01.944Z,7.28
2022-10-20T07:38:28.614Z,6.86
2022-10-20T07:41:01.932Z,7.40
2022-10-20T07:43:28.560Z,7.45
2022-10-20T07:45:55.195Z,7.84
2022-10-20T07:48:21.949Z,7.91
2022-10-20T07:50:48.531Z,7.92
2022-10-20T07:53:15.104Z,7.83
2022-10-20T07:55:41.711Z,8.05
2022-10-20T07:58:08.306Z,8.18
2022-10-20T08:00:35.038Z,8.23
2022-10-20T08:03:01.790Z,8.25
2022-10-20T08:05:28.383Z,8.19
2022-10-20T08:07:55.493Z,8.37
2022-10-20T08:10:22.195Z,8.59
2022-10-20T08:12:48.864Z,8.39
2022-10-20T08:15:18.570Z,8.92
2022-10-20T08:17:45.140Z,8.61
2022-10-20T08:20:19.610Z,9.05
2022-10-20T08:22:48.011Z,9.07
2022-10-20T08:25:17.804Z,9.05
2022-10-20T08:27:44.374Z,9.11
2022-10-20T08:30:24.863Z,9.21
2022-10-20T08:32:54.597Z,9.35
2022-10-20T08:35:22.795Z,9.61
2022-10-20T08:37:49.428Z,9.79
2022-10-20T08:40:28.420Z,9.73
2022-10-20T08:42:55.951Z,9.62
2022-10-20T08:45:24.873Z,9.72
2022-10-20T08:47:57.597Z,9.82
2022-10-20T08:50:28.451Z,10.00
2022-10-20T08:52:59.497Z,10.21
2022-10-20T08:55:33.793Z,10.05
2022-10-20T08:58:13.549Z,9.66
2022-10-20T09:00:41.740Z,10.29
2022-10-20T09:03:20.974Z,10.34
2022-10-20T09:06:14.916Z,10.38
2022-10-20T09:08:42.424Z,10.59
2022-10-20T09:11:20.586Z,10.80
2022-10-20T09:16:40.425Z,10.57
2022-10-20T09:19:22.232Z,10.73
2022-10-20T09:21:52.447Z,10.72
2022-10-20T09:24:22.002Z,10.87
2022-10-20T09:26:58.832Z,11.05
2022-10-20T09:29:37.355Z,10.93
2022-10-20T09:32:45.002Z,11.10
2022-10-20T09:35:21.785Z,11.19
2022-10-20T09:37:59.092Z,11.28
2022-10-20T09:40:26.908Z,11.68
2022-10-20T09:43:01.541Z,11.61
2022-10-20T09:45:31.498Z,11.78
2022-10-20T09:48:28.360Z,11.95
2022-10-20T09:50:57.384Z,11.80
2022-10-20T09:53:28.902Z,11.95
2022-10-20T09:55:56.193Z,11.90
2022-10-20T09:58:31.663Z,11.90
2022-10-20T10:01:14.878Z,11.53
2022-10-20T10:03:47.147Z,11.85
2022-10-20T10:06:52.037Z,11.86
2022-10-20T10:09:33.567Z,11.38
2022-10-20T10:12:20.747Z,11.88
2022-10-20T10:14:54.037Z,12.14
2022-10-20T10:17:29.274Z,12.55
2022-10-20T10:19:56.516Z,12.37
2022-10-20T10:22:23.393Z,12.47
2022-10-20T10:24:51.149Z,12.47
2022-10-20T10:27:22.093Z,12.60
2022-10-20T10:29:48.687Z,12.80
2022-10-20T10:32:19.178Z,12.87
2022-10-20T10:35:08.599Z,13.03
2022-10-20T10:37:37.576Z,13.10
2022-10-20T10:40:35.379Z,12.54
2022-10-20T10:43:14.132Z,12.24
2022-10-20T10:45:53.335Z,12.47
2022-10-20T10:48:49.167Z,13.04
2022-10-20T10:51:43.078Z,13.04
2022-10-20T10:54:15.550Z,13.44
2022-10-20T10:56:51.782Z,13.38
2022-10-20T10:59:23.850Z,13.55
2022-10-20T11:02:31.759Z,13.71
2022-10-20T11:05:19.840Z,13.51
2022-10-20T11:08:17.109Z,13.14
2022-10-20T11:10:53.850Z,13.20
2022-10-20T11:13:43.030Z,13.24
2022-10-20T11:16:31.290Z,13.46
2022-10-20T11:19:21.866Z,13.13
2022-10-20T11:22:20.871Z,13.21
2022-10-20T11:25:05.898Z,13.58
2022-10-20T11:27:37.326Z,13.51
2022-10-20T11:30:16.595Z,13.91
2022-10-20T11:32:53.931Z,13.82
2022-10-20T11:35:48.440Z,13.11
2022-10-20T11:38:32.107Z,13.57
2022-10-20T11:41:06.191Z,13.67
2022-10-20T11:43:43.078Z,13.95
2022-10-20T11:46:16.295Z,14.24
2022-10-20T11:48:54.897Z,14.24
2022-10-20T11:51:30.450Z,13.80
2022-10-20T11:54:18.482Z,13.67
2022-10-20T11:56:57.478Z,13.99
2022-10-20T12:00:02.038Z,14.18
2022-10-20T12:02:28.554Z,13.67
2022-10-20T12:05:29.127Z,14.05
2022-10-20T12:08:24.823Z,13.91
2022-10-20T12:11:05.642Z,13.66
2022-10-20T12:13:53.649Z,13.56
2022-10-20T12:17:19.023Z,13.74
2022-10-20T12:19:50.232Z,13.77
2022-10-20T12:22:16.760Z,14.07
2022-10-20T12:24:52.300Z,14.31
2022-10-20T12:27:24.318Z,14.38
2022-10-20T12:29:57.059Z,14.52
2022-10-20T12:32:29.524Z,14.37
2022-10-20T12:35:19.081Z,14.46
2022-10-20T12:37:56.775Z,14.44
2022-10-20T12:40:34.447Z,13.91
2022-10-20T12:43:01.048Z,14.28
2022-10-20T12:45:40.734Z,13.75
2022-10-20T12:48:20.432Z,13.91
2022-10-20T12:50:47.525Z,13.74
2022-10-20T12:53:23.613Z,13.77
2022-10-20T12:55:59.697Z,13.86
2022-10-20T12:58:27.314Z,13.40
2022-10-20T13:00:53.903Z,13.49
2022-10-20T13:03:38.860Z,12.70
2022-10-20T13:06:23.529Z,13.02
2022-10-20T13:09:05.347Z,13.87
2022-10-20T13:11:38.213Z,14.07
2022-10-20T13:14:29.553Z,13.32
2022-10-20T13:17:04.268Z,13.84
2022-10-20T13:19:47.783Z,14.26
2022-10-20T13:22:50.092Z,14.30
2022-10-20T13:25:29.042Z,14.38
2022-10-20T13:28:18.571Z,14.23
2022-10-20T13:31:06.588Z,14.49
2022-10-20T13:34:05.801Z,13.92
2022-10-20T13:37:06.668Z,14.26
2022-10-20T13:39:51.963Z,14.02
2022-10-20T13:42:27.634Z,14.34
2022-10-20T13:45:11.002Z,14.63
2022-10-20T13:47:46.291Z,14.30
2022-10-20T13:52:55.940Z,14.53
2022-10-20T13:55:26.810Z,14.30
2022-10-20T13:57:57.043Z,14.93
2022-10-20T14:00:32.426Z,14.64
2022-10-20T14:03:04.817Z,15.06
2022-10-20T14:05:38.399Z,14.94
2022-10-20T14:08:11.995Z,14.64
2022-10-20T14:11:00.165Z,14.56
2022-10-20T14:13:31.428Z,14.56
2022-10-20T14:16:00.745Z,14.81
2022-10-20T14:18:33.449Z,13.92
2022-10-20T14:21:03.114Z,13.68
2022-10-20T14:23:37.526Z,14.51
2022-10-20T14:26:10.111Z,14.20
2022-10-20T14:28:37.363Z,14.85
2022-10-20T14:31:04.604Z,15.06
2022-10-20T14:33:35.239Z,15.01
2022-10-20T14:36:02.318Z,15.22
2022-10-20T14:38:36.817Z,15.13
2022-10-20T14:41:06.214Z,14.75
2022-10-20T14:43:39.036Z,14.44
2022-10-20T14:46:08.940Z,14.50
2022-10-20T14:48:38.667Z,13.88
2022-10-20T14:51:27.716Z,13.89
2022-10-20T14:57:07.261Z,14.04
2022-10-20T14:59:52.423Z,13.75
2022-10-20T15:02:39.714Z,13.61
2022-10-20T15:05:26.455Z,14.09
2022-10-20T15:07:54.179Z,13.55
2022-10-20T15:10:24.389Z,12.99
2022-10-20T15:12:53.741Z,13.44
2022-10-20T15:15:25.664Z,13.53
2022-10-20T15:17:52.967Z,13.61
2022-10-20T15:20:31.519Z,13.30
2022-10-20T15:23:04.159Z,13.30
2022-10-20T15:25:52.521Z,13.35
2022-10-20T15:28:37.161Z,13.20
2022-10-20T15:31:12.625Z,13.27
2022-10-20T15:33:40.170Z,13.08
2022-10-20T15:36:15.409Z,12.88
2022-10-20T15:38:42.866Z,12.91
2022-10-20T15:41:13.712Z,12.66
2022-10-20T15:43:40.309Z,12.59
2022-10-20T15:46:11.520Z,12.58
2022-10-20T15:48:38.189Z,12.44
2022-10-20T15:51:06.213Z,12.48
2022-10-20T15:53:32.813Z,12.26
2022-10-20T15:55:59.378Z,12.20
2022-10-20T15:58:25.959Z,12.20
2022-10-20T16:00:52.558Z,12.06
2022-10-20T16:03:19.289Z,12.11
2022-10-20T16:05:48.711Z,11.96
2022-10-20T16:10:46.751Z,11.72
2022-10-20T16:13:13.342Z,11.62
2022-10-20T16:15:39.917Z,11.59
2022-10-20T16:18:09.585Z,11.56
2022-10-20T16:20:36.870Z,11.46
2022-10-20T16:23:03.430Z,11.37
2022-10-20T16:25:30.037Z,11.20
2022-10-20T16:27:56.623Z,11.21
2022-10-20T16:30:23.274Z,11.20
2022-10-20T16:32:49.832Z,11.16
2022-10-20T16:35:16.438Z,11.11
2022-10-20T16:37:42.996Z,10.91
2022-10-20T16:40:10.295Z,10.94
2022-10-20T16:42:36.887Z,10.89
2022-10-20T16:45:03.634Z,10.83
2022-10-20T16:47:30.218Z,10.57
2022-10-20T16:49:56.864Z,10.59
2022-10-20T16:52:23.498Z,10.51
2022-10-20T16:54:50.106Z,10.47
2022-10-20T16:57:16.729Z,10.42
2022-10-20T16:59:43.537Z,10.20
2022-10-20T17:02:12.628Z,10.22
2022-10-20T17:04:39.206Z,10.15
2022-10-20T17:07:05.787Z,10.11
2022-10-20T17:09:32.351Z,9.89
2022-10-20T17:11:58.911Z,9.94
2022-10-20T17:14:25.527Z,9.83
2022-10-20T17:16:52.088Z,9.42
2022-10-20T17:19:18.676Z,9.27
2022-10-20T17:21:45.295Z,9.09
2022-10-20T17:24:12.847Z,9.02
2022-10-20T17:26:40.896Z,9.00
2022-10-20T17:29:07.846Z,8.90
2022-10-20T17:31:37.543Z,8.90
2022-10-20T17:34:04.790Z,8.81
2022-10-20T17:36:31.864Z,8.86
2022-10-20T17:39:01.771Z,9.14
2022-10-20T17:41:28.936Z,9.32
2022-10-20T17:43:55.560Z,9.36
2022-10-20T17:46:22.214Z,9.35
2022-10-20T17:48:48.885Z,9.33
2022-10-20T17:51:18.534Z,9.51
2022-10-20T17:53:47.206Z,9.32
2022-10-20T17:56:17.597Z,9.21
2022-10-20T17:58:46.126Z,9.14
2022-10-20T18:01:15.470Z,9.23
2022-10-20T18:03:42.943Z,9.03
2022-10-20T18:06:13.295Z,8.76
2022-10-20T18:08:40.605Z,8.85
2022-10-20T18:11:11.908Z,8.88
2022-10-20T18:13:38.970Z,8.88
2022-10-20T18:16:07.126Z,8.81
2022-10-20T18:18:34.029Z,8.79
2022-10-20T18:21:00.601Z,8.66
2022-10-20T18:23:27.205Z,8.85
2022-10-20T18:25:54.121Z,8.87
2022-10-20T18:28:20.756Z,8.77
2022-10-20T18:30:47.380Z,8.88
2022-10-20T18:33:13.982Z,9.09
2022-10-20T18:35:40.579Z,8.91
2022-10-20T18:38:07.212Z,8.69
2022-10-20T18:40:33.817Z,8.75
2022-10-20T18:43:00.426Z,8.74
2022-10-20T18:45:27.624Z,8.75
2022-10-20T18:47:54.682Z,8.60
2022-10-20T18:50:21.356Z,8.54
2022-10-20T18:52:47.959Z,8.67
2022-10-20T18:55:14.586Z,8.63
2022-10-20T18:57:41.208Z,8.54
2022-10-20T19:00:09.259Z,8.52
2022-10-20T19:02:36.028Z,8.54
2022-10-20T19:05:04.084Z,8.33
2022-10-20T19:07:33.717Z,8.56
2022-10-20T19:10:00.313Z,8.50
2022-10-20T19:12:26.903Z,8.29
2022-10-20T19:14:53.486Z,8.74
2022-10-20T19:17:20.057Z,8.61
2022-10-20T19:19:46.644Z,8.45
2022-10-20T19:22:13.254Z,8.47
2022-10-20T19:24:39.873Z,8.35
2022-10-20T19:27:25.700Z,8.28
2022-10-20T19:29:52.985Z,8.12
2022-10-20T19:32:19.739Z,8.14
2022-10-20T19:34:46.463Z,8.14
2022-10-20T19:37:13.036Z,8.05
2022-10-20T19:39:42.519Z,7.91
2022-10-20T19:42:10.673Z,8.11
2022-10-20T19:44:38.161Z,8.07
2022-10-20T19:47:06.120Z,8.16
2022-10-20T19:49:32.751Z,7.90
2022-10-20T19:52:00.005Z,7.99
2022-10-20T19:54:26.620Z,7.98
2022-10-20T19:56:53.263Z,7.88
2022-10-20T19:59:19.855Z,7.90
2022-10-20T20:01:46.709Z,7.91
2022-10-20T20:04:13.321Z,7.82
2022-10-20T20:06:39.882Z,7.83
2022-10-20T20:09:08.778Z,7.85
2022-10-20T20:11:36.408Z,7.75
2022-10-20T20:14:10.534Z,7.70
2022-10-20T20:16:37.538Z,7.76
2022-10-20T20:19:04.303Z,7.78
2022-10-20T20:21:31.499Z,7.67
2022-10-20T20:24:01.019Z,7.75
2022-10-20T20:26:29.888Z,7.55
2022-10-20T20:28:56.674Z,7.42
2022-10-20T20:31:24.259Z,7.41
2022-10-20T20:33:51.203Z,7.39
2022-10-20T20:36:17.858Z,7.43
2022-10-20T20:38:44.524Z,7.42
2022-10-20T20:41:14.282Z,7.40
2022-10-20T20:43:40.990Z,7.34
2022-10-20T20:46:11.111Z,7.40
2022-10-20T20:48:38.243Z,7.34
2022-10-20T20:51:05.350Z,7.27
2022-10-20T20:56:07.943Z,7.16
2022-10-20T20:58:35.169Z,7.17
2022-10-20T21:01:08.601Z,7.30
2022-10-20T21:03:36.043Z,7.18
2022-10-20T21:06:08.107Z,7.12
2022-10-20T21:08:36.934Z,7.05
2022-10-20T21:11:08.566Z,7.14
2022-10-20T21:13:36.746Z,7.09
2022-10-20T21:16:09.323Z,6.97
2022-10-20T21:18:35.937Z,6.92
2022-10-20T21:21:14.203Z,6.99
2022-10-20T21:23:40.918Z,6.95
2022-10-20T21:26:09.343Z,6.99
2022-10-20T21:28:36.243Z,7.00
2022-10-20T21:31:07.559Z,7.23
2022-10-20T21:33:35.766Z,7.04
2022-10-20T21:36:07.654Z,7.04
2022-10-20T21:38:35.918Z,6.93
2022-10-20T21:41:07.004Z,6.92
2022-10-20T21:43:35.392Z,6.83
2022-10-20T21:46:20.570Z,7.01
2022-10-20T21:48:49.032Z,6.86
2022-10-20T21:51:27.788Z,6.69
2022-10-20T21:54:03.256Z,6.74
2022-10-20T21:56:30.996Z,6.63
2022-10-20T21:58:57.565Z,6.58
2022-10-20T22:01:25.223Z,6.62
2022-10-20T22:03:53.318Z,6.53
2022-10-20T22:06:22.959Z,6.56
2022-10-20T22:08:52.288Z,6.44
2022-10-20T22:11:31.258Z,6.49
2022-10-20T22:13:58.323Z,6.55
2022-10-20T22:16:30.938Z,6.55
2022-10-20T22:19:00.546Z,6.48
2022-10-20T22:21:29.346Z,6.51
2022-10-20T22:23:58.195Z,6.38
2022-10-20T22:26:29.648Z,6.29
2022-10-20T22:28:57.580Z,6.31
2022-10-20T22:31:25.054Z,6.32
2022-10-20T22:33:53.618Z,6.37
2022-10-20T22:36:20.429Z,6.36
2022-10-20T22:38:47.076Z,6.41
2022-10-20T22:41:13.940Z,6.39
2022-10-20T22:43:40.787Z,6.42
2022-10-20T22:46:07.803Z,6.25
2022-10-20T22:48:34.939Z,6.23
2022-10-20T22:51:04.919Z,6.26
2022-10-20T22:53:31.718Z,6.28
2022-10-20T22:56:13.867Z,6.33
2022-10-20T22:58:40.755Z,6.28
2022-10-20T23:01:16.906Z,6.27
2022-10-20T23:03:44.242Z,6.29
2022-10-20T23:06:17.135Z,6.36
2022-10-20T23:08:49.705Z,6.38
2022-10-20T23:11:17.234Z,6.45
2022-10-20T23:13:44.648Z,6.42
2022-10-20T23:16:12.053Z,6.21
2022-10-20T23:18:39.387Z,6.25
2022-10-20T23:21:06.611Z,6.31
2022-10-20T23:23:36.441Z,6.24
2022-10-20T23:26:04.870Z,6.32
2022-10-20T23:28:32.274Z,6.30
2022-10-20T23:31:25.053Z,6.14
2022-10-20T23:33:55.386Z,6.20
2022-10-20T23:36:22.887Z,6.13
2022-10-20T23:38:49.467Z,5.96
2022-10-20T23:41:16.046Z,5.96
2022-10-20T23:43:42.730Z,6.09
2022-10-20T23:46:09.601Z,6.12
2022-10-20T23:48:36.319Z,5.95
2022-10-20T23:51:02.919Z,5.90
2022-10-20T23:53:29.720Z,5.90
2022-10-20T23:55:56.492Z,6.09
2022-10-20T23:58:23.459Z,6.05
